Meteo Giornale » Osservazioni meteo Stati Uniti (USA) » Conroe Montgomery
ore: 16:53 - Osservazioni Meteo Conroe Montgomery
Lat. 30° 21' N Lon. 95° 24' W Alt. 74 metri s.l.m.
34 °C
Molto Nuvoloso
Temp. 24 Ore
22 °C
36 °C
Sud-Est
20.3 Km/h
Dew point 22 °C
Umidità 49 %
Visibilità 10 Km
Il sole sorge alle ore 06:57
Il sole tramonta alle ore 19:45
| Data e Ora | Cielo e Fenomeni | T °C | DP °C | Um. % | Pres. hPa | Vis. km | Vento km/h | |
|---|---|---|---|---|---|---|---|---|
| Oggi h: 16:53 | Molto Nuvoloso | 34 | 22 | 49 | 1014 | 10 | SE 20.3 | |
| Oggi h: 15:53 | Molto Nuvoloso | 36 | 21 | 41 | 1014 | 10 | SE 9.3 | |
| Oggi h: 14:53 | Molto Nuvoloso | 36 | 21 | 41 | 1015 | 10 | E/NE 11.1 | |
| Oggi h: 13:53 | Poco Nuvoloso | 34 | 21 | 46 | 1016 | 10 | N 0 | |
| Oggi h: 12:53 | Nuvoloso | 34 | 22 | 49 | 1017 | 10 | E/SE 9.3 | |
| Oggi h: 11:53 | Molto Nuvoloso | 34 | 22 | 49 | 1017 | 10 | N 0 | |
| Oggi h: 10:53 | Poco Nuvoloso | 32 | 22 | 55 | 1017 | 10 | N 5.5 | |
| Oggi h: 09:53 | Sereno | 30 | 23 | 66 | 1017 | 10 | N 0 | |
| Oggi h: 08:53 | Sereno | 28 | 24 | 78 | 1017 | 10 | N 0 | |
| Oggi h: 07:53 | Sereno | 23 | 23 | 100 | 1016 | 10 | N 0 | |
| Oggi h: 07:15 | Sereno | 22 | 22 | 100 | 1016 | 10 | N 0 | |
| Oggi h: 07:14 | Foschia | 22 | 22 | 100 | 1016 | 5 | N 0 | |
| Oggi h: 06:53 | Sereno | 22 | 22 | 100 | 1016 | 11 | N 0 | |
| Oggi h: 05:53 | Sereno | 22 | 22 | 100 | 1015 | 14 | N 0 | |
| Oggi h: 04:53 | Sereno | 23 | 22 | 94 | 1016 | 10 | N 0 | |
| Oggi h: 03:53 | Sereno | 23 | 22 | 94 | 1015 | 10 | N 0 | |
| Oggi h: 02:53 | Sereno | 23 | 22 | 94 | 1015 | 10 | N 0 | |
| Oggi h: 01:53 | Sereno | 24 | 22 | 88 | 1016 | 10 | N 0 | |
| Oggi h: 00:53 | Sereno | 24 | 22 | 88 | 1016 | 10 | N 0 | |
| Ieri h: 23:53 | Sereno | 25 | 21 | 78 | 1015 | 10 | N 0 | |
| Ieri h: 22:53 | Sereno | 27 | 21 | 69 | 1015 | 10 | N 5.5 | |
| Ieri h: 21:53 | Sereno | 28 | 19 | 58 | 1014 | 10 | SE 7.4 | |
| Ieri h: 20:53 | Sereno | 30 | 19 | 51 | 1014 | 10 | S/SE 7.4 | |
| Ieri h: 19:53 | Sereno | 33 | 19 | 43 | 1013 | 10 | SE 13 | |
| Ieri h: 18:53 | Sereno | 35 | 19 | 39 | 1013 | 10 | S 11.1 | |
| Ieri h: 17:53 | Poco Nuvoloso | 36 | 20 | 39 | 1013 | 10 | SE 14.8 | |



